Time;durP1;ratioP1;P1;durP2;ratioP2;P2;SDS_P1;SDS_P2;PMS_P1;PMS_P2;Temp;Humidity;BMP_temperature;BMP_pressure;BME280_temperature;BME280_humidity;BME280_pressure;Samples;Min_cycle;Max_cycle;Signal;HPM_P1;HPM_P2
2022/01/07 00:01:05;;;;;;;;;70.25;59.00;;;;;;;;5065591;28;8811;-80
2022/01/07 00:03:31;;;;;;;;;70.00;59.25;;;;;;;;5051066;27;8924;-81
2022/01/07 00:05:59;;;;;;;;;69.00;57.00;;;;;;;;5052538;28;8839;-81
2022/01/07 00:08:28;;;;;;;;;69.75;58.00;;;;;;;;5050710;27;9698;-81
2022/01/07 00:10:55;;;;;;;;;54.25;47.50;;;;;;;;5052341;27;8804;-80
2022/01/07 00:13:21;;;;;;;;;23.00;21.00;;;;;;;;5052320;27;8796;-80
2022/01/07 00:15:46;;;;;;;;;59.50;50.50;;;;;;;;5052166;27;8812;-80
2022/01/07 00:18:31;;;;;;;;;60.00;52.00;;;;;;;;5058004;27;9523;-80
2022/01/07 00:20:57;;;;;;;;;69.25;58.25;;;;;;;;5052151;28;8768;-80
2022/01/07 00:23:26;;;;;;;;;84.00;67.25;;;;;;;;5109067;27;8908;-81
2022/01/07 00:25:54;;;;;;;;;91.25;76.00;;;;;;;;5051900;27;8847;-81
2022/01/07 00:28:19;;;;;;;;;106.40;99.40;;;;;;;;5052068;27;8757;-80
2022/01/07 00:30:45;;;;;;;;;119.33;118.67;;;;;;;;5051819;28;9026;-80
2022/01/07 00:33:13;;;;;;;;;101.75;91.00;;;;;;;;5051653;27;8816;-80
2022/01/07 00:35:42;;;;;;;;;104.00;97.75;;;;;;;;5051844;28;8788;-80
2022/01/07 00:38:10;;;;;;;;;107.50;105.50;;;;;;;;5069969;27;8806;-80
2022/01/07 00:40:36;;;;;;;;;109.20;105.60;;;;;;;;5058597;27;8757;-80
2022/01/07 00:43:01;;;;;;;;;108.67;106.67;;;;;;;;5062248;27;8805;-80
2022/01/07 00:45:26;;;;;;;;;109.67;108.00;;;;;;;;5100758;27;8847;-80
2022/01/07 00:47:53;;;;;;;;;107.75;103.00;;;;;;;;5041600;27;11697;-80
2022/01/07 00:50:19;;;;;;;;;88.20;73.40;;;;;;;;5072099;28;8797;-80
2022/01/07 00:52:45;;;;;;;;;100.60;87.40;;;;;;;;5073146;27;8800;-80
2022/01/07 00:55:11;;;;;;;;;105.00;97.25;;;;;;;;5062936;28;8830;-80
2022/01/07 00:57:39;;;;;;;;;92.25;78.00;;;;;;;;5051208;27;8918;-80
2022/01/07 01:00:09;;;;;;;;;74.50;62.25;;;;;;;;5051845;28;8906;-80
2022/01/07 01:02:35;;;;;;;;;83.40;69.60;;;;;;;;5051702;27;9682;-80
2022/01/07 01:05:04;;;;;;;;;78.50;65.25;;;;;;;;5061075;28;8813;-80
2022/01/07 01:07:32;;;;;;;;;78.40;65.00;;;;;;;;5054885;27;8834;-80
2022/01/07 01:10:01;;;;;;;;;86.00;70.25;;;;;;;;5051816;28;8820;-80
2022/01/07 01:12:36;;;;;;;;;;;;;;;;;;;;;
2022/01/07 01:15:09;;;;;;;;;80.50;66.50;;;;;;;;5063137;28;36328;-80
2022/01/07 01:17:34;;;;;;;;;78.25;64.00;;;;;;;;5065393;27;8788;-80
2022/01/07 01:20:00;;;;;;;;;76.00;62.50;;;;;;;;5051558;28;8827;-81
2022/01/07 01:22:25;;;;;;;;;76.50;60.75;;;;;;;;5055060;27;8808;-81
2022/01/07 01:24:54;;;;;;;;;85.75;70.25;;;;;;;;5051362;28;8796;-80
2022/01/07 01:27:22;;;;;;;;;71.00;59.75;;;;;;;;5057852;27;8790;-80
2022/01/07 01:29:47;;;;;;;;;83.50;67.50;;;;;;;;5056708;28;8818;-80
2022/01/07 01:32:12;;;;;;;;;76.50;63.00;;;;;;;;5051944;27;8913;-80
2022/01/07 01:34:41;;;;;;;;;75.50;62.75;;;;;;;;5051581;28;8803;-80
2022/01/07 01:37:06;;;;;;;;;69.25;59.00;;;;;;;;5051565;27;8815;-80
2022/01/07 01:39:35;;;;;;;;;82.75;67.25;;;;;;;;5050460;28;8807;-80
2022/01/07 01:42:03;;;;;;;;;62.25;52.25;;;;;;;;5050346;27;8812;-80
2022/01/07 01:44:28;;;;;;;;;65.00;55.25;;;;;;;;5107111;27;8798;-80
2022/01/07 01:46:54;;;;;;;;;66.50;56.00;;;;;;;;5048037;27;8839;-80
2022/01/07 01:49:22;;;;;;;;;75.50;62.50;;;;;;;;5051731;28;8838;-81
2022/01/07 01:51:50;;;;;;;;;78.00;64.75;;;;;;;;5055476;27;8874;-81
2022/01/07 01:54:16;;;;;;;;;61.00;52.00;;;;;;;;5051691;28;8822;-81
2022/01/07 01:56:44;;;;;;;;;67.25;56.75;;;;;;;;5053577;27;8807;-81
2022/01/07 01:59:10;;;;;;;;;73.75;62.50;;;;;;;;5050189;28;9750;-80
2022/01/07 02:01:36;;;;;;;;;79.75;65.25;;;;;;;;5050312;27;9745;-80
2022/01/07 02:04:02;;;;;;;;;75.75;61.25;;;;;;;;5051209;28;8788;-81
2022/01/07 02:06:39;;;;;;;;;68.00;55.20;;;;;;;;5164770;27;13559;-82
2022/01/07 02:09:08;;;;;;;;;91.67;77.67;;;;;;;;5151784;27;8927;-80
2022/01/07 02:11:36;;;;;;;;;103.75;98.75;;;;;;;;5150593;27;8800;-80
2022/01/07 02:14:05;;;;;;;;;110.40;108.60;;;;;;;;5151382;27;8765;-80
2022/01/07 02:16:51;;;;;;;;;99.80;89.40;;;;;;;;5151781;27;8822;-80
2022/01/07 02:19:16;;;;;;;;;91.25;78.25;;;;;;;;5140859;27;9741;-79
2022/01/07 02:21:42;;;;;;;;;89.75;76.50;;;;;;;;5151228;27;8800;-79
2022/01/07 02:24:09;;;;;;;;;88.00;74.00;;;;;;;;5151585;27;8808;-79
2022/01/07 02:26:35;;;;;;;;;95.20;83.80;;;;;;;;5151514;27;8824;-79
2022/01/07 02:29:04;;;;;;;;;84.75;69.50;;;;;;;;5151637;27;8879;-79
2022/01/07 02:31:32;;;;;;;;;96.60;85.20;;;;;;;;5151844;27;8789;-79
2022/01/07 02:33:57;;;;;;;;;90.80;74.60;;;;;;;;5151297;27;8780;-79
2022/01/07 02:36:23;;;;;;;;;94.40;83.00;;;;;;;;5151523;27;8831;-79
2022/01/07 02:38:50;;;;;;;;;101.67;94.00;;;;;;;;5150990;27;8821;-79
2022/01/07 02:41:16;;;;;;;;;101.25;94.50;;;;;;;;5151365;27;8784;-79
2022/01/07 02:43:41;;;;;;;;;99.75;89.75;;;;;;;;5151114;27;8816;-79
2022/01/07 02:46:06;;;;;;;;;94.00;81.00;;;;;;;;5151154;27;8974;-79
2022/01/07 02:48:32;;;;;;;;;114.60;110.60;;;;;;;;5151468;27;8901;-78
2022/01/07 02:50:59;;;;;;;;;116.75;115.75;;;;;;;;5150811;27;8816;-79
2022/01/07 02:53:25;;;;;;;;;103.25;97.00;;;;;;;;5137277;27;8812;-79
2022/01/07 02:55:50;;;;;;;;;96.67;86.33;;;;;;;;5150893;27;8804;-79
2022/01/07 02:58:18;;;;;;;;;102.25;91.25;;;;;;;;5150790;27;8816;-79
2022/01/07 03:00:44;;;;;;;;;98.40;88.80;;;;;;;;5149304;27;11692;-79
2022/01/07 03:03:09;;;;;;;;;97.80;84.60;;;;;;;;5151112;27;8895;-79
2022/01/07 03:05:41;;;;;;;;;99.75;89.50;;;;;;;;5138431;27;8844;-79
2022/01/07 03:08:06;;;;;;;;;133.40;131.00;;;;;;;;5129677;27;8801;-79
2022/01/07 03:10:33;;;;;;;;;125.00;124.75;;;;;;;;5130353;27;8761;-79
2022/01/07 03:13:00;;;;;;;;;146.00;143.60;;;;;;;;5111358;27;8808;-79
2022/01/07 03:15:29;;;;;;;;;136.00;132.00;;;;;;;;5130292;27;8772;-79
2022/01/07 03:17:57;;;;;;;;;113.50;112.25;;;;;;;;5097797;28;8801;-79
2022/01/07 03:20:22;;;;;;;;;98.75;87.00;;;;;;;;5097730;28;11014;-79
2022/01/07 03:22:49;;;;;;;;;112.00;109.25;;;;;;;;5115867;28;8803;-79
2022/01/07 03:25:17;;;;;;;;;94.00;81.75;;;;;;;;5116309;28;8760;-79
2022/01/07 03:27:46;;;;;;;;;99.25;88.25;;;;;;;;5097746;28;8800;-79
2022/01/07 03:30:23;;;;;;;;;98.00;89.75;;;;;;;;5116149;28;8919;-79
2022/01/07 03:32:51;;;;;;;;;94.75;83.00;;;;;;;;5116039;28;8796;-79
2022/01/07 03:35:19;;;;;;;;;99.50;88.50;;;;;;;;5115990;28;8780;-79
2022/01/07 03:37:47;;;;;;;;;91.25;76.75;;;;;;;;5115656;28;8785;-79
2022/01/07 03:40:12;;;;;;;;;105.00;100.40;;;;;;;;5115716;28;8776;-79
2022/01/07 03:42:38;;;;;;;;;105.75;99.75;;;;;;;;5116105;28;8800;-79
2022/01/07 03:45:07;;;;;;;;;97.40;88.00;;;;;;;;5115469;28;8801;-79
2022/01/07 03:47:32;;;;;;;;;110.00;106.60;;;;;;;;5115513;28;8780;-79
2022/01/07 03:50:00;;;;;;;;;99.75;90.50;;;;;;;;5115260;28;8884;-79
2022/01/07 03:52:27;;;;;;;;;104.00;97.80;;;;;;;;5115464;28;8785;-79
2022/01/07 03:54:53;;;;;;;;;123.60;123.20;;;;;;;;5115464;28;8789;-79
2022/01/07 03:57:18;;;;;;;;;121.75;121.75;;;;;;;;5115403;28;8909;-79
2022/01/07 03:59:47;;;;;;;;;132.00;128.67;;;;;;;;5115119;28;8800;-79
2022/01/07 04:02:15;;;;;;;;;127.40;124.40;;;;;;;;5097106;28;8793;-79
2022/01/07 04:04:40;;;;;;;;;132.60;131.60;;;;;;;;5115168;27;8777;-79
2022/01/07 04:07:08;;;;;;;;;117.25;115.50;;;;;;;;5114836;28;9599;-80
2022/01/07 04:09:41;;;;;;;;;121.50;121.25;;;;;;;;5102300;28;8761;-79
2022/01/07 04:12:09;;;;;;;;;111.20;108.80;;;;;;;;5115324;28;8869;-79
2022/01/07 04:14:37;;;;;;;;;117.83;115.83;;;;;;;;5115367;28;8785;-79
2022/01/07 04:17:03;;;;;;;;;115.40;112.40;;;;;;;;5096523;28;8757;-80
2022/01/07 04:19:28;;;;;;;;;110.25;107.75;;;;;;;;5115469;28;9694;-80
2022/01/07 04:21:56;;;;;;;;;127.50;126.50;;;;;;;;5096048;28;8832;-79
2022/01/07 04:24:21;;;;;;;;;117.20;116.20;;;;;;;;5115324;28;8788;-79
2022/01/07 04:26:49;;;;;;;;;124.00;119.67;;;;;;;;5114856;28;8927;-79
2022/01/07 04:29:17;;;;;;;;;117.00;113.00;;;;;;;;5114319;28;8765;-79
2022/01/07 04:31:42;;;;;;;;;131.25;129.00;;;;;;;;5114506;28;11437;-79
2022/01/07 04:34:08;;;;;;;;;109.75;108.00;;;;;;;;5115335;28;8788;-80
2022/01/07 04:36:36;;;;;;;;;103.50;97.00;;;;;;;;5114755;28;9166;-80
2022/01/07 04:39:01;;;;;;;;;103.60;97.40;;;;;;;;5114693;28;9246;-80
2022/01/07 04:41:29;;;;;;;;;83.00;69.25;;;;;;;;5114914;28;8824;-80
2022/01/07 04:43:57;;;;;;;;;84.75;69.25;;;;;;;;5114754;28;8785;-79
2022/01/07 04:46:23;;;;;;;;;92.50;78.75;;;;;;;;5114714;28;8816;-79
2022/01/07 04:48:48;;;;;;;;;91.50;78.00;;;;;;;;5096210;28;8863;-79
2022/01/07 04:51:21;;;;;;;;;81.67;68.00;;;;;;;;5115042;28;8886;-79
2022/01/07 04:53:46;;;;;;;;;75.20;61.40;;;;;;;;5114226;28;8766;-79
2022/01/07 04:56:15;;;;;;;;;78.33;64.67;;;;;;;;5114734;28;9594;-79
2022/01/07 04:58:40;;;;;;;;;80.00;67.00;;;;;;;;5114584;28;8799;-80
2022/01/07 05:01:05;;;;;;;;;72.00;61.00;;;;;;;;5114651;28;8804;-80
2022/01/07 05:03:31;;;;;;;;;78.67;64.67;;;;;;;;5114862;28;8805;-80
2022/01/07 05:06:13;;;;;;;;;81.33;65.33;;;;;;;;5122548;27;9062;-80
2022/01/07 05:08:46;;;;;;;;;73.00;61.50;;;;;;;;5134940;27;8878;-79
2022/01/07 05:11:14;;;;;;;;;61.50;52.00;;;;;;;;5122130;27;8797;-79
2022/01/07 05:13:44;;;;;;;;;59.60;50.60;;;;;;;;5135098;27;8862;-79
2022/01/07 05:16:13;;;;;;;;;76.75;63.50;;;;;;;;5135544;27;8757;-79
2022/01/07 05:18:38;;;;;;;;;70.75;59.25;;;;;;;;5134944;27;8773;-79
2022/01/07 05:21:06;;;;;;;;;74.00;62.00;;;;;;;;5133500;27;9080;-80
2022/01/07 05:23:35;;;;;;;;;67.00;57.33;;;;;;;;5135020;27;8796;-79
2022/01/07 05:26:00;;;;;;;;;71.80;59.40;;;;;;;;5134884;27;11154;-81
2022/01/07 05:28:25;;;;;;;;;58.75;49.25;;;;;;;;5133910;27;8835;-81
2022/01/07 05:30:51;;;;;;;;;57.25;47.75;;;;;;;;5134728;27;8809;-82
2022/01/07 05:33:16;;;;;;;;;50.25;42.75;;;;;;;;5135495;27;8793;-82
2022/01/07 05:35:41;;;;;;;;;45.33;43.00;;;;;;;;5134751;27;8796;-82
2022/01/07 05:38:10;;;;;;;;;42.50;40.75;;;;;;;;5133590;27;11503;-82
2022/01/07 05:40:35;;;;;;;;;59.33;51.67;;;;;;;;5134817;27;8788;-82
2022/01/07 05:43:03;;;;;;;;;61.00;52.75;;;;;;;;5134948;27;9055;-82
2022/01/07 05:45:29;;;;;;;;;47.75;43.75;;;;;;;;5135050;27;8847;-81
2022/01/07 05:47:54;;;;;;;;;71.50;59.50;;;;;;;;5134428;27;8808;-82
2022/01/07 05:50:22;;;;;;;;;51.33;47.00;;;;;;;;5134966;27;8821;-82
2022/01/07 05:52:50;;;;;;;;;50.25;46.25;;;;;;;;5134264;27;9774;-82
2022/01/07 05:55:19;;;;;;;;;69.75;58.50;;;;;;;;5133321;27;8796;-83
2022/01/07 05:57:47;;;;;;;;;74.50;62.75;;;;;;;;5127299;27;8792;-83
2022/01/07 06:00:12;;;;;;;;;75.75;63.25;;;;;;;;5134609;27;8757;-83
2022/01/07 06:02:38;;;;;;;;;83.50;69.00;;;;;;;;5133452;27;9637;-83
2022/01/07 06:05:06;;;;;;;;;85.75;69.75;;;;;;;;5129712;27;9529;-83
2022/01/07 06:07:31;;;;;;;;;70.60;59.60;;;;;;;;5105036;28;11512;-83
2022/01/07 06:10:00;;;;;;;;;81.00;66.67;;;;;;;;5094816;28;8864;-83
2022/01/07 06:12:25;;;;;;;;;86.00;71.25;;;;;;;;5113483;28;8804;-84
2022/01/07 06:14:50;;;;;;;;;74.67;62.00;;;;;;;;5094693;28;8839;-83
2022/01/07 06:17:16;;;;;;;;;73.75;62.00;;;;;;;;5113866;28;8840;-83
2022/01/07 06:19:41;;;;;;;;;80.00;66.67;;;;;;;;5113730;28;8851;-83
2022/01/07 06:22:07;;;;;;;;;84.00;69.25;;;;;;;;5113593;28;10007;-80
2022/01/07 06:24:35;;;;;;;;;71.50;60.25;;;;;;;;5119156;28;8809;-83
2022/01/07 06:27:03;;;;;;;;;87.00;71.00;;;;;;;;5114670;28;8745;-84
2022/01/07 06:29:28;;;;;;;;;72.75;59.50;;;;;;;;5114674;28;8808;-83
2022/01/07 06:31:53;;;;;;;;;83.33;68.33;;;;;;;;5113531;28;8848;-83
2022/01/07 06:34:20;;;;;;;;;81.50;67.00;;;;;;;;5114162;28;8852;-84
2022/01/07 06:36:48;;;;;;;;;63.75;54.50;;;;;;;;5095488;28;8996;-84
2022/01/07 06:39:19;;;;;;;;;77.25;64.25;;;;;;;;5111970;28;9019;-84
2022/01/07 06:41:52;;;;;;;;;75.50;61.50;;;;;;;;5118515;28;8808;-81
2022/01/07 06:44:24;;;;;;;;;75.50;61.75;;;;;;;;5113713;28;8783;-83
2022/01/07 06:46:50;;;;;;;;;84.80;70.20;;;;;;;;5093747;28;8804;-84
2022/01/07 06:49:18;;;;;;;;;62.50;52.50;;;;;;;;5113685;28;8850;-84
2022/01/07 06:51:43;;;;;;;;;71.75;58.00;;;;;;;;5113632;28;8828;-84
2022/01/07 06:54:11;;;;;;;;;64.75;54.75;;;;;;;;5117112;28;8920;-82
2022/01/07 06:56:46;;;;;;;;;64.25;53.50;;;;;;;;5097242;28;8800;-82
2022/01/07 06:59:14;;;;;;;;;71.00;60.20;;;;;;;;5097575;28;11472;-82
2022/01/07 07:01:45;;;;;;;;;71.75;59.25;;;;;;;;5116740;28;8730;-82
2022/01/07 07:04:17;;;;;;;;;71.50;59.75;;;;;;;;5116715;27;8820;-81
2022/01/07 07:06:42;;;;;;;;;85.50;69.75;;;;;;;;5121538;27;8809;-81
2022/01/07 07:09:08;;;;;;;;;65.25;55.25;;;;;;;;5136653;27;11510;-80
2022/01/07 07:11:35;;;;;;;;;75.75;62.25;;;;;;;;5135624;27;10108;-79
2022/01/07 07:14:03;;;;;;;;;80.40;66.20;;;;;;;;5136919;27;8797;-82
2022/01/07 07:16:29;;;;;;;;;74.25;62.25;;;;;;;;5137295;27;8792;-83
2022/01/07 07:18:54;;;;;;;;;65.50;55.00;;;;;;;;5136736;27;12334;-82
2022/01/07 07:21:20;;;;;;;;;70.25;58.75;;;;;;;;5137153;27;8911;-83
2022/01/07 07:23:45;;;;;;;;;74.25;61.00;;;;;;;;5135034;27;8931;-82
2022/01/07 07:26:10;;;;;;;;;75.00;61.25;;;;;;;;5137080;27;8889;-82
2022/01/07 07:28:46;;;;;;;;;;;;;;;;;;;;;
2022/01/07 07:31:17;;;;;;;;;66.25;55.25;;;;;;;;5132772;27;36130;-82
2022/01/07 07:36:31;;;;;;;;;82.00;67.80;;;;;;;;5136615;27;9626;-82
2022/01/07 07:39:07;;;;;;;;;73.25;61.25;;;;;;;;5136492;27;8822;-83
2022/01/07 07:41:32;;;;;;;;;86.60;71.80;;;;;;;;5136850;27;8861;-85
2022/01/07 07:44:00;;;;;;;;;81.40;66.40;;;;;;;;5136697;27;8801;-83
2022/01/07 07:46:27;;;;;;;;;86.50;70.50;;;;;;;;5135140;27;8808;-83
2022/01/07 07:48:53;;;;;;;;;82.80;68.40;;;;;;;;5136517;27;8844;-82
2022/01/07 07:51:21;;;;;;;;;86.00;71.00;;;;;;;;5136319;27;8785;-82
2022/01/07 07:53:47;;;;;;;;;74.80;62.60;;;;;;;;5146365;27;8777;-83
2022/01/07 07:56:13;;;;;;;;;76.75;63.75;;;;;;;;5134625;27;8876;-83
2022/01/07 07:58:42;;;;;;;;;71.25;58.25;;;;;;;;5134974;27;8846;-83
2022/01/07 08:01:10;;;;;;;;;84.00;69.20;;;;;;;;5134928;27;11624;-82
2022/01/07 08:03:36;;;;;;;;;76.00;63.00;;;;;;;;5136215;27;8845;-85
2022/01/07 08:06:04;;;;;;;;;87.33;72.00;;;;;;;;5133834;27;8847;-85
2022/01/07 08:08:31;;;;;;;;;83.75;68.50;;;;;;;;5136258;27;8768;-85
2022/01/07 08:10:59;;;;;;;;;84.80;69.20;;;;;;;;5134987;27;9638;-85
2022/01/07 08:13:31;;;;;;;;;87.60;71.80;;;;;;;;5146712;27;8745;-82
2022/01/07 08:16:04;;;;;;;;;85.40;69.80;;;;;;;;5138932;27;8834;-82
2022/01/07 08:18:36;;;;;;;;;82.67;68.67;;;;;;;;5135846;27;8784;-85
2022/01/07 08:21:06;;;;;;;;;86.60;71.00;;;;;;;;5134587;27;8796;-87
2022/01/07 08:23:32;;;;;;;;;92.00;79.20;;;;;;;;5131910;27;8915;-87
2022/01/07 08:26:00;;;;;;;;;87.00;74.20;;;;;;;;5135589;27;8836;-84
2022/01/07 08:28:28;;;;;;;;;90.80;78.60;;;;;;;;5135490;27;8765;-87
2022/01/07 08:36:09;;;;;;;;;92.20;81.20;;;;;;;;5135202;27;8777;-87
2022/01/07 08:38:35;;;;;;;;;89.40;76.00;;;;;;;;5135567;27;8811;-86
2022/01/07 08:41:03;;;;;;;;;92.75;78.25;;;;;;;;5128419;27;8824;-86
2022/01/07 08:43:32;;;;;;;;;96.25;86.50;;;;;;;;5135209;27;8781;-87
2022/01/07 08:45:57;;;;;;;;;98.25;90.00;;;;;;;;5134982;27;8804;-88
2022/01/07 08:48:29;;;;;;;;;86.75;72.00;;;;;;;;5135959;27;8834;-87
2022/01/07 08:50:57;;;;;;;;;87.80;74.00;;;;;;;;5135352;27;8824;-87
2022/01/07 08:53:25;;;;;;;;;85.40;68.80;;;;;;;;5129494;27;8807;-87
2022/01/07 08:55:56;;;;;;;;;91.80;78.80;;;;;;;;5134014;27;8764;-87
2022/01/07 08:58:21;;;;;;;;;84.40;69.20;;;;;;;;5134502;27;8748;-87
2022/01/07 09:00:49;;;;;;;;;92.60;81.60;;;;;;;;5144230;27;9521;-87
2022/01/07 09:03:18;;;;;;;;;93.40;79.60;;;;;;;;5134171;27;9607;-88
2022/01/07 09:05:46;;;;;;;;;93.20;82.00;;;;;;;;5134644;27;8816;-87
2022/01/07 09:08:12;;;;;;;;;88.00;72.60;;;;;;;;5135498;27;9627;-87
2022/01/07 09:10:40;;;;;;;;;94.75;84.50;;;;;;;;5135650;27;8806;-87
2022/01/07 09:13:05;;;;;;;;;96.40;88.80;;;;;;;;5139387;27;11553;-85
2022/01/07 09:15:34;;;;;;;;;101.75;97.75;;;;;;;;5134726;27;8881;-85
2022/01/07 09:18:00;;;;;;;;;92.20;81.40;;;;;;;;5134009;27;11519;-85
2022/01/07 09:20:27;;;;;;;;;97.00;89.25;;;;;;;;5135176;27;8835;-86
2022/01/07 09:23:01;;;;;;;;;93.80;83.00;;;;;;;;5134494;27;8769;-86
2022/01/07 09:25:33;;;;;;;;;90.25;76.75;;;;;;;;5135168;27;8800;-86
2022/01/07 09:28:03;;;;;;;;;92.00;79.60;;;;;;;;5134978;27;8872;-86
2022/01/07 09:30:44;;;;;;;;;92.20;80.00;;;;;;;;5135269;27;8792;-87
2022/01/07 09:33:10;;;;;;;;;87.25;72.50;;;;;;;;5133398;27;8881;-87
2022/01/07 09:35:37;;;;;;;;;88.00;70.67;;;;;;;;5135169;27;8824;-87
2022/01/07 09:38:10;;;;;;;;;99.00;92.00;;;;;;;;5134506;27;8737;-87
2022/01/07 09:40:35;;;;;;;;;82.20;67.60;;;;;;;;5133346;27;8784;-87
2022/01/07 09:43:08;;;;;;;;;96.60;88.00;;;;;;;;5134507;27;8792;-87
2022/01/07 09:45:37;;;;;;;;;82.60;68.20;;;;;;;;5130602;27;8795;-87
2022/01/07 09:48:03;;;;;;;;;81.40;67.20;;;;;;;;5132884;27;8788;-85
2022/01/07 09:50:32;;;;;;;;;70.50;58.75;;;;;;;;5134794;27;8799;-85
2022/01/07 09:53:02;;;;;;;;;79.00;65.60;;;;;;;;5141311;27;9138;-85
2022/01/07 09:55:28;;;;;;;;;91.25;79.25;;;;;;;;5132352;27;8800;-85
2022/01/07 09:57:53;;;;;;;;;86.25;70.50;;;;;;;;5133742;27;8855;-84
2022/01/07 10:00:21;;;;;;;;;79.67;65.67;;;;;;;;5134436;27;8837;-84
2022/01/07 10:03:02;;;;;;;;;80.75;66.75;;;;;;;;5146978;27;8832;-84
2022/01/07 10:05:41;;;;;;;;;;;;;;;;;;;;;
2022/01/07 10:08:42;;;;;;;;;88.20;75.40;;;;;;;;5110781;28;36982;-84
2022/01/07 10:11:14;;;;;;;;;81.20;66.80;;;;;;;;4980923;28;8814;-85
2022/01/07 10:13:42;;;;;;;;;78.50;65.00;;;;;;;;5089391;28;9746;-84
2022/01/07 10:16:15;;;;;;;;;87.25;70.75;;;;;;;;5094952;28;8970;-84
2022/01/07 10:18:40;;;;;;;;;83.20;68.60;;;;;;;;5109578;28;8753;-82
2022/01/07 10:21:10;;;;;;;;;85.75;70.25;;;;;;;;5094445;28;9222;-84
2022/01/07 10:23:35;;;;;;;;;89.20;75.40;;;;;;;;5112533;28;8903;-87
2022/01/07 10:26:03;;;;;;;;;90.33;76.67;;;;;;;;5113796;28;8974;-86
2022/01/07 10:28:36;;;;;;;;;75.80;62.80;;;;;;;;5117410;28;8793;-87
2022/01/07 10:31:08;;;;;;;;;90.25;77.50;;;;;;;;5115422;28;8881;-86
2022/01/07 10:33:39;;;;;;;;;82.40;68.20;;;;;;;;5112533;28;8800;-86
2022/01/07 10:36:11;;;;;;;;;95.25;82.75;;;;;;;;5116986;28;8753;-87
2022/01/07 10:38:45;;;;;;;;;78.75;64.00;;;;;;;;5117093;28;8889;-86
2022/01/07 10:41:14;;;;;;;;;76.25;62.50;;;;;;;;5115707;28;8793;-87
2022/01/07 10:43:42;;;;;;;;;77.20;63.60;;;;;;;;5116374;28;8807;-87
2022/01/07 10:46:13;;;;;;;;;87.50;73.75;;;;;;;;5097079;28;8799;-87
2022/01/07 10:48:53;;;;;;;;;92.00;78.20;;;;;;;;5105454;28;8806;-86
2022/01/07 10:51:23;;;;;;;;;94.40;85.60;;;;;;;;5116322;28;8868;-86
2022/01/07 10:53:53;;;;;;;;;94.33;85.00;;;;;;;;5121666;28;8744;-83
2022/01/07 10:56:23;;;;;;;;;91.60;79.20;;;;;;;;5097600;28;10592;-83
2022/01/07 10:58:49;;;;;;;;;80.60;67.20;;;;;;;;5116100;28;8766;-84
2022/01/07 11:01:23;;;;;;;;;78.50;63.50;;;;;;;;5121885;27;8837;-83
2022/01/07 11:03:55;;;;;;;;;77.20;63.40;;;;;;;;5115341;28;8824;-83
2022/01/07 11:06:27;;;;;;;;;84.00;69.40;;;;;;;;5130512;27;8824;-81
2022/01/07 11:08:56;;;;;;;;;86.50;73.25;;;;;;;;5136421;27;9639;-84
2022/01/07 11:11:27;;;;;;;;;80.20;65.80;;;;;;;;5141900;27;8835;-82
2022/01/07 11:13:55;;;;;;;;;88.75;76.25;;;;;;;;5135231;27;8745;-86
2022/01/07 11:16:21;;;;;;;;;89.50;77.00;;;;;;;;5129390;27;8788;-84
2022/01/07 11:18:49;;;;;;;;;80.00;66.00;;;;;;;;5137136;27;8938;-84
2022/01/07 11:21:18;;;;;;;;;84.40;70.00;;;;;;;;5136633;27;11517;-84
2022/01/07 11:23:49;;;;;;;;;71.60;59.60;;;;;;;;5136358;27;8822;-85
2022/01/07 11:26:18;;;;;;;;;73.60;61.20;;;;;;;;5132410;27;8761;-84
2022/01/07 11:28:55;;;;;;;;;95.20;88.20;;;;;;;;5136909;27;9735;-87
2022/01/07 11:31:23;;;;;;;;;84.25;70.25;;;;;;;;5137060;27;8814;-86
2022/01/07 11:34:10;;;;;;;;;87.80;74.80;;;;;;;;5136993;27;8737;-86
2022/01/07 11:36:39;;;;;;;;;80.20;65.20;;;;;;;;5134695;27;8878;-84
2022/01/07 11:39:06;;;;;;;;;73.25;60.75;;;;;;;;5136259;27;8796;-86
2022/01/07 11:42:06;;;;;;;;;79.25;65.25;;;;;;;;5136573;27;8802;-85
2022/01/07 11:44:35;;;;;;;;;75.40;61.80;;;;;;;;5120271;27;9782;-85
2022/01/07 11:47:13;;;;;;;;;77.20;61.80;;;;;;;;5135223;27;8797;-84
2022/01/07 11:49:38;;;;;;;;;67.80;56.80;;;;;;;;5136226;27;8814;-83
2022/01/07 11:52:37;;;;;;;;;79.25;64.75;;;;;;;;5148520;27;8761;-83
2022/01/07 11:55:24;;;;;;;;;78.40;64.80;;;;;;;;5084640;27;8793;-84
2022/01/07 11:57:52;;;;;;;;;66.60;56.80;;;;;;;;5132376;27;8824;-84
2022/01/07 12:00:39;;;;;;;;;79.00;64.50;;;;;;;;5135208;27;8812;-83
2022/01/07 12:03:07;;;;;;;;;71.00;59.00;;;;;;;;5138146;27;8839;-80
2022/01/07 12:05:32;;;;;;;;;75.40;61.40;;;;;;;;5126394;27;8805;-78
2022/01/07 12:08:01;;;;;;;;;85.25;70.75;;;;;;;;5115417;28;8860;-83
2022/01/07 12:10:28;;;;;;;;;73.40;61.00;;;;;;;;5097327;28;8809;-83
2022/01/07 12:13:00;;;;;;;;;81.75;67.25;;;;;;;;5096730;28;8805;-83
2022/01/07 12:15:29;;;;;;;;;78.60;64.40;;;;;;;;5115751;28;8854;-82
2022/01/07 12:18:06;;;;;;;;;75.60;62.80;;;;;;;;5115987;28;8832;-82
2022/01/07 12:20:35;;;;;;;;;38.20;37.40;;;;;;;;5115255;28;8785;-82
2022/01/07 12:23:03;;;;;;;;;66.40;56.20;;;;;;;;5114654;28;9757;-80
2022/01/07 12:25:28;;;;;;;;;77.50;63.25;;;;;;;;5115521;28;8847;-80
2022/01/07 12:28:05;;;;;;;;;72.75;60.75;;;;;;;;5096626;28;8856;-80
2022/01/07 12:30:31;;;;;;;;;67.25;56.25;;;;;;;;5096922;28;9168;-80
2022/01/07 12:33:04;;;;;;;;;80.80;65.80;;;;;;;;5115033;28;8788;-79
2022/01/07 12:35:30;;;;;;;;;69.60;58.20;;;;;;;;5115041;28;8784;-78
2022/01/07 12:37:55;;;;;;;;;68.50;57.75;;;;;;;;5114975;28;8795;-78
2022/01/07 12:40:21;;;;;;;;;68.75;57.50;;;;;;;;5115445;28;8851;-78
2022/01/07 12:42:49;;;;;;;;;79.33;65.00;;;;;;;;5114841;28;8812;-79
2022/01/07 12:45:19;;;;;;;;;67.40;56.60;;;;;;;;5096107;28;8820;-79
2022/01/07 12:47:45;;;;;;;;;59.00;50.60;;;;;;;;5114522;28;8874;-78
2022/01/07 12:50:10;;;;;;;;;60.25;51.25;;;;;;;;5095702;28;8836;-78
2022/01/07 12:52:37;;;;;;;;;69.75;56.75;;;;;;;;5114419;28;8797;-78
2022/01/07 12:55:07;;;;;;;;;49.00;42.67;;;;;;;;5101485;28;8789;-78
2022/01/07 12:57:46;;;;;;;;;58.00;50.00;;;;;;;;5096169;28;11494;-78
2022/01/07 13:00:12;;;;;;;;;70.33;58.33;;;;;;;;5114725;28;8824;-78
2022/01/07 13:02:40;;;;;;;;;69.33;57.67;;;;;;;;5114989;28;8832;-78
2022/01/07 13:05:24;;;;;;;;;73.80;60.60;;;;;;;;5114904;27;8942;-78
2022/01/07 13:07:53;;;;;;;;;67.25;56.75;;;;;;;;5095707;28;8867;-78
2022/01/07 13:10:21;;;;;;;;;63.50;53.75;;;;;;;;5096682;28;9526;-78
2022/01/07 13:13:00;;;;;;;;;67.75;56.00;;;;;;;;5114146;28;8866;-78
2022/01/07 13:15:39;;;;;;;;;68.00;56.80;;;;;;;;5114318;28;8797;-78
2022/01/07 13:18:18;;;;;;;;;72.25;59.50;;;;;;;;5114914;28;8910;-78
2022/01/07 13:20:45;;;;;;;;;73.40;61.00;;;;;;;;5114049;28;8827;-79
2022/01/07 13:23:11;;;;;;;;;76.20;63.40;;;;;;;;5114591;28;8785;-78
2022/01/07 13:25:38;;;;;;;;;75.00;62.00;;;;;;;;5114269;28;8832;-79
2022/01/07 13:28:04;;;;;;;;;73.00;60.50;;;;;;;;5114633;28;8818;-79
2022/01/07 13:30:33;;;;;;;;;70.00;58.00;;;;;;;;5114708;28;8902;-78
2022/01/07 13:33:06;;;;;;;;;81.60;68.80;;;;;;;;5113865;28;8876;-79
2022/01/07 13:35:31;;;;;;;;;69.40;58.00;;;;;;;;5101375;28;8844;-80
2022/01/07 13:37:59;;;;;;;;;73.67;61.00;;;;;;;;5114035;28;9001;-79
2022/01/07 13:40:29;;;;;;;;;70.40;58.20;;;;;;;;5101436;28;8797;-79
2022/01/07 13:43:14;;;;;;;;;77.60;64.80;;;;;;;;5114076;28;8800;-79
2022/01/07 13:45:40;;;;;;;;;73.80;61.20;;;;;;;;5089983;28;8875;-79
2022/01/07 13:48:07;;;;;;;;;85.60;76.40;;;;;;;;5114290;28;8809;-79
2022/01/07 13:50:33;;;;;;;;;98.67;94.00;;;;;;;;5095859;28;8808;-79
2022/01/07 13:53:19;;;;;;;;;99.83;94.67;;;;;;;;5109792;28;8801;-77
2022/01/07 13:55:45;;;;;;;;;89.75;82.00;;;;;;;;5111202;27;8923;-84
2022/01/07 13:58:13;;;;;;;;;79.60;67.60;;;;;;;;5113438;28;8777;-79
2022/01/07 14:00:42;;;;;;;;;84.80;72.40;;;;;;;;5113342;28;8781;-82
2022/01/07 14:03:08;;;;;;;;;86.75;75.75;;;;;;;;5113967;28;8812;-82
2022/01/07 14:05:35;;;;;;;;;81.67;70.50;;;;;;;;5115769;27;8804;-83
2022/01/07 14:08:06;;;;;;;;;90.60;83.40;;;;;;;;5103629;27;8877;-82
2022/01/07 14:10:35;;;;;;;;;86.80;76.80;;;;;;;;5086835;28;8784;-83
2022/01/07 14:13:07;;;;;;;;;87.00;77.80;;;;;;;;5101883;28;8786;-82
2022/01/07 14:15:43;;;;;;;;;82.60;70.00;;;;;;;;5125782;27;8876;-84
2022/01/07 14:18:12;;;;;;;;;88.60;80.60;;;;;;;;5113444;27;8773;-83
2022/01/07 14:20:42;;;;;;;;;85.20;74.00;;;;;;;;5102272;27;8785;-83
2022/01/07 14:23:13;;;;;;;;;90.00;82.50;;;;;;;;5114606;27;8880;-83
2022/01/07 14:25:38;;;;;;;;;88.75;80.75;;;;;;;;5085964;28;11047;-84
2022/01/07 14:28:04;;;;;;;;;78.75;65.25;;;;;;;;5105548;27;8817;-84
2022/01/07 14:30:31;;;;;;;;;85.40;75.60;;;;;;;;5113525;28;9635;-84
2022/01/07 14:32:57;;;;;;;;;81.50;69.00;;;;;;;;5113330;27;8725;-84
2022/01/07 14:35:22;;;;;;;;;85.25;72.25;;;;;;;;5119048;27;8857;-84
2022/01/07 14:37:47;;;;;;;;;80.75;67.00;;;;;;;;5105393;28;8824;-83
2022/01/07 14:40:13;;;;;;;;;74.50;61.25;;;;;;;;5093739;28;9577;-83
2022/01/07 14:42:38;;;;;;;;;88.25;79.00;;;;;;;;5115581;27;8816;-83
2022/01/07 14:45:05;;;;;;;;;82.25;70.25;;;;;;;;5094645;27;8842;-83